• Join FlightAware (Why Join?)
  • Login
  • US Flag 
06:02AM EDT


 

Airport Tracker/Info


-or-


 

Live Flight TrackerFlight Track Log ✈ SWA2139 ✈ 18-May-2014 ✈ KDEN - KHOU

Flight Track Log - Related Links

Times and Time Zones

All times are in EDT time to prevent confusion due to time zone crossing. See the SWA2139 flight status page for this flight to view local times or setup timezone preferences in your user account.

Time Position Orientation Groundspeed Altitude Reporting Facility
EDT Latitude Longitude Course Direction KTS MPH feet Rate Location/Type
10:32AM 39.8667 -104.5500 164° South 213 245 7,200  Level Denver TRACON
10:33AM 39.8333 -104.4833 123° Southeast 249 287 9,400 1,800 Climbing Denver TRACON
10:34AM 39.8139 -104.4100 109° East 272 313 10,200 1,860 Climbing Denver Center
10:35AM 39.7261 -104.3650 158° South 343 395 12,800 2,280 Climbing Denver Center
10:36AM 39.6322 -104.4044 198° South 352 405 15,000 840 Climbing Denver Center
10:37AM 39.4076 -104.1836 162° South  Level Estimated
10:37AM 39.5411 -104.4739 210° Southwest 351 404 14,600  Level Denver Center
10:38AM 39.3165 -104.0864 164° South  Level Estimated
10:38AM 39.4550 -104.5344 209° Southwest 352 405 16,000  Level Denver Center
10:39AM 39.3644 -104.5894 205° Southwest 362 417 19,200 2,820 Climbing Denver Center
10:40AM 39.2608 -104.6372 200° South 371 427 21,900 2,460 Climbing Denver Center
10:41AM 39.1561 -104.6842 199° South 389 448 24,300 2,220 Climbing Denver Center
10:42AM 39.0450 -104.7297 198° South 417 480 26,500 1,980 Climbing Denver Center
10:43AM 38.9269 -104.6881 165° South 444 511 28,400 1,620 Climbing Denver Center
10:44AM 38.8064 -104.6372 162° South 450 518 29,900 1,500 Climbing Denver Center
10:45AM 38.6675 -104.5303 149° Southeast 485 558 31,600 1,860 Climbing Denver Center
10:46AM 38.5561 -104.4322 145° Southeast 489 563 33,800 1,740 Climbing Denver Center
10:47AM 38.4456 -104.3375 146° Southeast 482 555 35,300 1,320 Climbing Denver Center
10:48AM 38.3339 -104.2400 146° Southeast 484 557 36,600 1,260 Climbing Denver Center
10:49AM 38.2050 -104.1319 147° Southeast 485 558 38,000 1,140 Climbing Denver Center
10:50AM 38.0925 -104.0367 146° Southeast 486 559 39,000 480 Climbing Denver Center
10:51AM 37.9806 -103.9408 146° Southeast 485 558 39,000  Level Denver Center
10:52AM 37.8694 -103.8450 146° Southeast 485 558 39,000  Level Denver Center
10:53AM 37.7567 -103.7489 146° Southeast 484 557 39,000  Level Denver Center
10:54AM 37.6439 -103.6550 147° Southeast 483 556 39,000  Level Denver Center
10:55AM 37.5319 -103.5594 146° Southeast 483 556 39,000  Level Denver Center
10:56AM 37.4197 -103.4656 146° Southeast 483 556 39,000  Level Denver Center
10:57AM 37.2844 -103.3525 146° Southeast 482 555 39,000  Level Denver Center
10:58AM 37.2400 -103.3161 147° Southeast 482 555 39,000  Level Albuquerque Center
10:59AM 37.1261 -103.2231 147° Southeast 483 556 39,000  Level Albuquerque Center
11:00AM 36.9908 -103.1119 147° Southeast 484 557 39,000  Level Albuquerque Center
11:01AM 36.8786 -103.0178 146° Southeast 484 557 39,000  Level Albuquerque Center
11:02AM 36.7661 -102.9256 147° Southeast 484 557 39,000  Level Albuquerque Center
11:03AM 36.6533 -102.8336 147° Southeast 484 557 39,000  Level Albuquerque Center
11:04AM 36.5367 -102.7389 147° Southeast 484 557 39,000  Level Albuquerque Center
11:05AM 36.4242 -102.6481 147° Southeast 485 558 39,000  Level Albuquerque Center
11:06AM 36.3117 -102.5558 147° Southeast 484 557 39,000  Level Albuquerque Center
11:07AM 36.1758 -102.4469 147° Southeast 485 558 39,000  Level Albuquerque Center
11:08AM 36.0636 -102.3561 147° Southeast 484 557 39,000  Level Albuquerque Center
11:09AM 35.9514 -102.2658 147° Southeast 484 557 39,000  Level Albuquerque Center
11:10AM 35.8386 -102.1769 147° Southeast 484 557 39,000  Level Albuquerque Center
11:11AM 35.7272 -102.0883 147° Southeast 482 555 39,000  Level Albuquerque Center
11:12AM 35.6167 -101.9994 147° Southeast 480 552 39,000  Level Albuquerque Center
11:13AM 35.4947 -101.9028 147° Southeast 480 552 39,000  Level Albuquerque Center
11:14AM 35.3831 -101.8142 147° Southeast 479 551 39,000  Level Albuquerque Center
11:15AM 35.2692 -101.7250 147° Southeast 478 550 39,000  Level Albuquerque Center
11:16AM 35.1825 -101.5789 126° Southeast 476 548 39,000  Level Albuquerque Center
11:18AM 35.1147 -101.4358 120° Southeast 481 554 39,000  Level Albuquerque Center
11:19AM 35.0444 -101.2828 119° Southeast 484 557 39,000  Level Albuquerque Center
11:20AM 34.9783 -101.1406 120° Southeast 484 557 39,000  Level Albuquerque Center
11:21AM 34.9122 -100.9983 120° Southeast 484 557 39,000  Level Albuquerque Center
11:22AM 34.8456 -100.8561 120° Southeast 484 557 39,000  Level Albuquerque Center
11:23AM 34.7672 -100.6858 119° Southeast 484 557 39,000  Level Albuquerque Center
11:24AM 34.7003 -100.5444 120° Southeast 484 557 39,000  Level Albuquerque Center
11:24AM 34.6725 -100.4883 121° Southeast 483 556 39,000  Level Fort Worth Center
11:25AM 34.5972 -100.3278 120° Southeast 483 556 39,000 -180 Level Fort Worth Center
11:26AM 34.5247 -100.1781 120° Southeast 483 556 38,700 -660 Descending Fort Worth Center
11:27AM 34.4586 -100.0361 119° Southeast 483 556 37,700 -840 Descending Fort Worth Center
11:28AM 34.3897 -99.8944 120° Southeast 485 558 37,000 -360 Descending Fort Worth Center
11:29AM 34.3161 -99.7417 120° Southeast 484 557 37,000  Level Fort Worth Center
11:30AM 34.2483 -99.6022 120° Southeast 483 556 37,000  Level Fort Worth Center
11:31AM 34.1808 -99.4631 120° Southeast 481 554 37,000  Level Fort Worth Center
11:33AM 34.1144 -99.3250 120° Southeast 479 551 37,000  Level Fort Worth Center
11:34AM 34.0469 -99.1886 121° Southeast 477 549 37,000  Level Fort Worth Center
11:35AM 33.9756 -99.0453 121° Southeast 474 545 37,000  Level Fort Worth Center
11:36AM 33.9075 -98.9078 121° Southeast 474 545 37,000  Level Fort Worth Center
11:37AM 33.8403 -98.7719 121° Southeast 474 545 37,000  Level Fort Worth Center
11:38AM 33.7603 -98.6083 120° Southeast 475 547 37,000  Level Fort Worth Center
11:39AM 33.6931 -98.4731 121° Southeast 474 545 37,000  Level Fort Worth Center
11:40AM 33.6250 -98.3372 121° Southeast 477 549 37,000  Level Fort Worth Center
11:41AM 33.5486 -98.1861 121° Southeast 479 551 37,000  Level Fort Worth Center
11:42AM 33.4878 -98.0653 121° Southeast 476 548 37,000  Level Fort Worth Center
11:43AM 33.4058 -97.9031 121° Southeast 477 549 37,000  Level Fort Worth Center
11:44AM 33.3367 -97.7664 121° Southeast 481 554 37,000  Level Fort Worth Center
11:45AM 33.2667 -97.6336 122° Southeast 475 547 37,000  Level Fort Worth Center
11:46AM 33.1981 -97.4986 121° Southeast 473 544 37,000  Level Fort Worth Center
11:47AM 33.1231 -97.3681 124° Southeast 477 549 37,000  Level Fort Worth Center
11:48AM 32.9986 -97.3108 159° South 485 558 37,000  Level Fort Worth Center
11:49AM 32.8722 -97.2742 166° South 474 545 37,000  Level Fort Worth Center
11:50AM 32.7306 -97.2300 165° South 470 541 37,000  Level Fort Worth Center
11:51AM 32.6067 -97.1906 165° South 469 540 37,000  Level Fort Worth Center
11:52AM 32.4831 -97.1517 165° South 463 533 37,000  Level Fort Worth Center
11:53AM 32.3322 -97.1058 166° South 464 534 37,000  Level Fort Worth Center
11:54AM 32.2075 -97.0661 165° South 463 533 37,000  Level Fort Worth Center
11:55AM 32.0825 -97.0261 165° South 464 534 37,000  Level Fort Worth Center
11:56AM 31.9461 -96.9836 165° South 464 534 37,000  Level Fort Worth Center
11:57AM 31.8194 -96.9467 166° South 465 535 37,000  Level Fort Worth Center
11:58AM 31.6933 -96.9075 165° South 465 535 37,000  Level Fort Worth Center
11:59AM 31.5672 -96.8681 165° South 466 536 37,000 -1,080 Level Fort Worth Center
12:00PM 31.4461 -96.8200 161° South 466 536 34,800 -2,340 Descending Fort Worth Center
12:01PM 31.3261 -96.7578 156° South 467 537 32,200 -2,340 Descending Fort Worth Center
12:03PM 31.1864 -96.6894 157° South 454 522 30,000 -2,100 Descending Fort Worth Center
12:04PM 31.0733 -96.6322 157° South 443 510 27,900 -2,040 Descending Fort Worth Center
12:05PM 30.9633 -96.5781 157° South 428 493 25,800 -2,040 Descending Fort Worth Center
12:06PM 30.8136 -96.5039 157° South 416 479 23,000 -1,920 Descending Houston Center
12:07PM 30.7119 -96.4544 157° South 403 464 21,100 -1,860 Descending Houston Center
12:08PM 30.6133 -96.4069 157° South 389 448 19,200 -1,740 Descending Houston Center
12:09PM 30.5192 -96.3606 157° South 376 433 17,600 -1,980 Descending Houston Center
12:10PM 30.4103 -96.3067 157° South 360 414 15,200 -2,280 Descending Houston Center
12:10PM 30.3897 -96.2989 162° South 357 411 14,800 -1,860 Descending Houston Center
12:11PM 30.3192 -96.2631 156° South 357 411 13,300 -1,920 Descending Houston Center
12:12PM 30.2539 -96.2317 157° South 340 391 11,900 -1,860 Descending Houston Center
12:12PM 30.2328 -96.2194 153° Southeast 347 399 11,400 -900 Descending Houston Center
12:13PM 30.1708 -96.1903 158° South 330 380 11,000 -420 Descending Houston Center
12:13PM 30.1492 -96.1767 151° Southeast 335 386 11,000  Level Houston Center
12:14PM 30.0825 -96.1400 155° Southeast 324 373 11,000  Level Houston Center
12:14PM 30.0686 -96.1331 157° South 326 375 11,000  Level Houston Center
12:15PM 29.9992 -96.0964 155° Southeast 328 377 11,000  Level Houston Center
12:15PM 29.9853 -96.0889 155° Southeast 326 375 11,000  Level Houston Center
12:16PM 29.9178 -96.0525 155° Southeast 324 373 11,000  Level Houston Center
12:16PM 29.8867 -96.0369 157° South 326 375 11,000  Level Houston Center
12:17PM 29.8231 -96.0031 155° Southeast 326 375 11,000  Level Houston Center
12:17PM 29.8150 -95.9958 142° Southeast 326 375 11,000  Level Houston Center
12:18PM 29.7589 -95.9406 139° Southeast 311 358 11,000  Level Houston Center
12:18PM 29.7486 -95.9306 140° Southeast 321 369 11,000 -300 Level Houston Center
12:19PM 29.6969 -95.8806 140° Southeast 298 343 10,700 -900 Descending Houston Center
12:19PM 29.6733 -95.8556 137° Southeast 303 349 10,100 -1,440 Descending Houston Center
12:20PM 29.6258 -95.8117 141° Southeast 294 338 9,100 -1,260 Descending Houston Center
12:21PM 29.6108 -95.7972 140° Southeast 295 339 8,800 -1,440 Descending Houston Center
12:21PM 29.5686 -95.7583 141° Southeast 283 326 7,800 -1,380 Descending Houston Center
12:22PM 29.5519 -95.7386 134° Southeast 287 330 7,400 -1,500 Descending Houston Center
12:22PM 29.5575 -95.6803 84° East 279 321 6,300 -1,380 Descending Houston Center
12:23PM 29.5717 -95.6592 52° Northeast 282 325 6,000 -300 Descending Houston Center
12:23PM 29.5972 -95.6061 61° Northeast 268 308 6,000  Level Houston Center
12:24PM 29.6078 -95.5842 61° Northeast 274 315 6,000 -600 Level Houston Center
12:24PM 29.6269 -95.5425 62° Northeast 238 274 5,500 -1,260 Descending Houston Center
12:25PM 29.6472 -95.5061 57° Northeast 242 278 4,700 -1,500 Descending Houston Center
12:25PM 29.6647 -95.4708 60° Northeast 231 266 3,800 -1,380 Descending Houston Center
12:26PM 29.6786 -95.4419 61° Northeast 234 269 3,300 -900 Descending Houston Center
12:26PM 29.6947 -95.4094 60° Northeast 194 223 2,900 -900 Descending Houston Center
12:27PM 29.7061 -95.3867 60° Northeast 215 247 2,400 -1,080 Descending Houston Center
12:27PM 29.7108 -95.3569 80° East 161 185 1,800 -900 Descending Houston Center
12:28PM 29.7003 -95.3428 131° Southeast 175 201 1,500 -840 Descending Houston Center
12:28PM 29.6828 -95.3242 137° Southeast 135 155 1,000 -780 Descending Houston Center
12:29PM 29.6731 -95.3125 134° Southeast 150 173 700 -720 Descending Houston Center
12:29PM 29.6569 -95.2936 134° Southeast 135 155 300 22,500 Descending Houston Center
12:30PM 29.6467 -95.2806 132° Southeast 142 163 24,000 43,080 Climbing Houston Center
12:32PM 29.6454 -95.2789 115° Southeast  Level Estimated